createdAt,value
2022-12-23T00:04:06.531Z,52.81
2022-12-23T00:09:10.189Z,52.67
2022-12-23T00:14:31.951Z,53.11
2022-12-23T00:19:35.471Z,52.69
2022-12-23T00:24:39.067Z,52.68
2022-12-23T00:29:42.833Z,53.05
2022-12-23T00:34:46.456Z,52.71
2022-12-23T00:40:07.714Z,52.92
2022-12-23T00:45:16.538Z,52.34
2022-12-23T00:50:20.089Z,52.75
2022-12-23T00:55:23.743Z,52.68
2022-12-23T01:00:41.163Z,52.59
2022-12-23T01:05:44.726Z,52.59
2022-12-23T01:10:48.333Z,52.26
2022-12-23T01:15:51.870Z,52.23
2022-12-23T01:20:55.383Z,52.78
2022-12-23T01:25:59.440Z,52.49
2022-12-23T01:31:02.995Z,52.74
2022-12-23T01:36:06.571Z,52.76
2022-12-23T01:41:30.109Z,52.67
2022-12-23T01:46:33.755Z,52.79
2022-12-23T01:51:37.349Z,52.55
2022-12-23T01:56:41.903Z,53.13
2022-12-23T02:02:03.371Z,52.31
2022-12-23T02:07:24.894Z,51.97
2022-12-23T02:12:28.455Z,52.55
2022-12-23T02:17:32.009Z,52.59
2022-12-23T02:22:36.588Z,52.74
2022-12-23T02:27:40.774Z,52.85
2022-12-23T02:32:44.519Z,53.21
2022-12-23T02:37:48.213Z,53.21
2022-12-23T02:42:51.736Z,53.29
2022-12-23T02:47:55.349Z,52.96
2022-12-23T02:52:58.928Z,53.19
2022-12-23T02:58:02.548Z,52.55
2022-12-23T03:03:06.258Z,52.36
2022-12-23T03:08:09.927Z,52.19
2022-12-23T03:13:13.758Z,51.68
2022-12-23T03:18:17.275Z,51.76
2022-12-23T03:23:20.786Z,52.03
2022-12-23T03:28:24.301Z,51.86
2022-12-23T03:33:27.845Z,51.72
2022-12-23T03:38:31.530Z,51.02
2022-12-23T03:43:35.131Z,50.84
2022-12-23T03:48:38.701Z,50.81
2022-12-23T03:53:42.321Z,50.98
2022-12-23T03:58:45.907Z,51.01
2022-12-23T04:03:49.656Z,51.51
2022-12-23T04:08:53.388Z,52.16
2022-12-23T04:13:57.180Z,51.96
2022-12-23T04:19:00.763Z,52.37
2022-12-23T04:24:04.344Z,52.29
2022-12-23T04:29:07.881Z,51.00
2022-12-23T04:34:11.478Z,51.61
2022-12-23T04:39:15.056Z,52.87
2022-12-23T04:44:18.600Z,52.70
2022-12-23T04:49:22.167Z,52.90
2022-12-23T04:54:25.907Z,52.29
2022-12-23T04:59:29.583Z,52.60
2022-12-23T05:04:33.170Z,51.89
2022-12-23T05:09:36.727Z,51.55
2022-12-23T05:14:40.439Z,51.13
2022-12-23T05:19:44.207Z,51.29
2022-12-23T05:24:47.791Z,50.84
2022-12-23T05:29:51.353Z,50.91
2022-12-23T05:34:54.897Z,50.84
2022-12-23T05:39:58.565Z,51.18
2022-12-23T05:45:02.441Z,51.01
2022-12-23T05:50:05.986Z,50.76
2022-12-23T05:55:09.540Z,50.87
2022-12-23T06:00:13.163Z,52.09
2022-12-23T06:05:16.679Z,51.89
2022-12-23T06:10:20.464Z,50.62
2022-12-23T06:15:24.057Z,51.77
2022-12-23T06:20:27.801Z,52.10
2022-12-23T06:25:31.384Z,52.06
2022-12-23T06:30:34.962Z,52.27
2022-12-23T06:35:38.855Z,52.02
2022-12-23T06:40:42.440Z,52.01
2022-12-23T06:45:46.159Z,51.78
2022-12-23T06:50:49.807Z,51.83
2022-12-23T06:55:53.387Z,51.41
2022-12-23T07:00:58.175Z,51.58
2022-12-23T07:06:01.805Z,51.76
2022-12-23T07:11:05.356Z,50.68
2022-12-23T07:16:09.057Z,51.03
2022-12-23T07:21:21.201Z,52.11
2022-12-23T07:26:30.391Z,51.62
2022-12-23T07:31:34.880Z,51.22
2022-12-23T07:36:40.903Z,50.57
2022-12-23T07:41:44.511Z,49.83
2022-12-23T07:46:48.248Z,50.37
2022-12-23T07:51:51.939Z,51.04
2022-12-23T07:56:56.180Z,51.63
2022-12-23T08:01:59.849Z,51.97
2022-12-23T08:07:03.546Z,52.78
2022-12-23T08:12:07.142Z,53.60
2022-12-23T08:17:11.045Z,53.88
2022-12-23T08:22:14.813Z,54.69
2022-12-23T08:27:18.451Z,54.71
2022-12-23T08:32:21.973Z,56.42
2022-12-23T08:37:25.491Z,54.63
2022-12-23T08:42:29.107Z,54.71
2022-12-23T08:47:32.718Z,54.78
2022-12-23T08:52:36.283Z,56.75
2022-12-23T08:57:40.010Z,56.32
2022-12-23T09:02:43.832Z,56.17
2022-12-23T09:07:47.745Z,55.55
2022-12-23T09:12:51.336Z,55.73
2022-12-23T09:17:54.909Z,54.60
2022-12-23T09:22:58.532Z,53.68
2022-12-23T09:28:02.166Z,52.91
2022-12-23T09:33:05.843Z,53.26
2022-12-23T09:38:09.406Z,53.29
2022-12-23T09:43:12.938Z,53.40
2022-12-23T09:48:16.659Z,52.81
2022-12-23T09:53:20.483Z,53.06
2022-12-23T09:58:24.130Z,52.79
2022-12-23T10:03:27.837Z,52.37
2022-12-23T10:08:31.649Z,52.35
2022-12-23T10:13:35.996Z,52.14
2022-12-23T10:18:39.554Z,52.41
2022-12-23T10:23:43.155Z,52.38
2022-12-23T10:28:46.676Z,52.45
2022-12-23T10:33:50.242Z,52.95
2022-12-23T10:45:12.063Z,52.35
2022-12-23T10:50:15.687Z,52.38
2022-12-23T10:55:19.296Z,53.18
2022-12-23T11:00:22.949Z,53.08
2022-12-23T11:05:26.562Z,52.73
2022-12-23T11:10:32.830Z,52.93
2022-12-23T11:15:36.430Z,52.53
2022-12-23T11:20:40.539Z,53.17
2022-12-23T11:25:47.081Z,54.11
2022-12-23T11:30:55.942Z,53.58
2022-12-23T11:36:00.044Z,53.32
2022-12-23T11:41:03.697Z,53.46
2022-12-23T11:46:07.380Z,53.60
2022-12-23T11:51:11.102Z,53.35
2022-12-23T11:56:14.714Z,53.27
2022-12-23T12:01:18.394Z,52.66
2022-12-23T12:06:22.038Z,52.28
2022-12-23T12:11:25.679Z,53.87
2022-12-23T12:16:29.426Z,53.32
2022-12-23T12:21:33.040Z,53.70
2022-12-23T12:26:36.687Z,53.11
2022-12-23T12:31:40.331Z,53.93
2022-12-23T12:36:44.087Z,53.97
2022-12-23T12:41:47.831Z,53.49
2022-12-23T12:46:51.420Z,53.58
2022-12-23T12:51:55.006Z,53.22
2022-12-23T12:56:58.568Z,52.60
2022-12-23T13:02:02.309Z,52.71
2022-12-23T13:07:05.893Z,51.78
2022-12-23T13:12:09.486Z,51.70
2022-12-23T13:17:13.067Z,51.31
2022-12-23T13:22:16.762Z,51.08
2022-12-23T13:27:20.515Z,51.27
2022-12-23T13:32:24.200Z,51.02
2022-12-23T13:37:27.795Z,50.83
2022-12-23T13:42:31.364Z,51.14
2022-12-23T13:47:34.937Z,51.68
2022-12-23T13:52:38.629Z,51.82
2022-12-23T13:57:42.238Z,51.51
2022-12-23T14:02:45.996Z,51.48
2022-12-23T14:07:49.614Z,51.40
2022-12-23T14:12:53.160Z,52.41
2022-12-23T14:18:00.995Z,52.72
2022-12-23T14:23:07.802Z,52.22
2022-12-23T14:28:11.412Z,51.82
2022-12-23T14:33:15.033Z,51.50
2022-12-23T14:38:18.681Z,50.78
2022-12-23T14:43:22.447Z,50.72
2022-12-23T14:48:26.602Z,51.55
2022-12-23T14:53:30.248Z,51.45
2022-12-23T14:58:33.942Z,51.04
2022-12-23T15:03:37.510Z,50.82
2022-12-23T15:08:41.157Z,50.68
2022-12-23T15:13:44.734Z,51.22
2022-12-23T15:18:48.317Z,51.04
2022-12-23T15:23:52.047Z,50.68
2022-12-23T15:28:56.166Z,50.75
2022-12-23T15:34:03.520Z,50.08
2022-12-23T15:39:08.460Z,50.76
2022-12-23T15:44:12.003Z,50.86
2022-12-23T15:49:15.657Z,51.07
2022-12-23T15:54:19.368Z,51.43
2022-12-23T15:59:22.942Z,51.49
2022-12-23T16:04:26.659Z,51.36
2022-12-23T16:09:30.490Z,50.94
2022-12-23T16:14:34.915Z,50.55
2022-12-23T16:19:38.634Z,50.81
2022-12-23T16:24:42.298Z,50.80
2022-12-23T16:29:45.931Z,50.92
2022-12-23T16:34:49.533Z,50.75
2022-12-23T16:39:53.078Z,50.54
2022-12-23T16:44:56.749Z,50.78
2022-12-23T16:50:00.354Z,50.73
2022-12-23T16:55:04.034Z,50.56
2022-12-23T17:00:07.770Z,50.79
2022-12-23T17:05:11.327Z,50.71
2022-12-23T17:10:14.851Z,51.07
2022-12-23T17:15:18.530Z,50.33
2022-12-23T17:20:22.113Z,50.19
2022-12-23T17:25:26.768Z,50.58
2022-12-23T17:30:31.023Z,50.78
2022-12-23T17:35:34.587Z,50.70
2022-12-23T17:40:38.762Z,50.20
2022-12-23T17:45:42.527Z,50.43
2022-12-23T17:50:46.185Z,50.33
2022-12-23T17:55:50.021Z,49.72
2022-12-23T18:00:53.681Z,50.31
2022-12-23T18:06:01.829Z,50.15
2022-12-23T18:11:05.978Z,50.01
2022-12-23T18:16:13.294Z,50.11
2022-12-23T18:21:17.030Z,50.13
2022-12-23T18:26:20.605Z,50.29
2022-12-23T18:31:24.419Z,50.22
2022-12-23T18:36:28.331Z,50.00
2022-12-23T18:41:32.098Z,50.50
2022-12-23T18:46:35.708Z,50.63
2022-12-23T18:51:39.366Z,50.06
2022-12-23T18:56:42.976Z,50.39
2022-12-23T19:01:46.597Z,50.04
2022-12-23T19:06:50.177Z,50.34
2022-12-23T19:11:53.726Z,49.95
2022-12-23T19:16:59.956Z,50.07
2022-12-23T19:22:03.585Z,49.94
2022-12-23T19:27:07.178Z,50.13
2022-12-23T19:32:10.698Z,50.64
2022-12-23T19:37:14.305Z,50.20
2022-12-23T19:42:17.954Z,49.86
2022-12-23T19:47:21.519Z,50.37
2022-12-23T19:52:25.075Z,50.05
2022-12-23T19:57:28.615Z,50.50
2022-12-23T20:02:32.249Z,51.18
2022-12-23T20:07:35.935Z,51.25
2022-12-23T20:12:39.463Z,51.32
2022-12-23T20:17:42.985Z,51.17
2022-12-23T20:22:46.616Z,50.83
2022-12-23T20:27:50.249Z,50.87
2022-12-23T20:32:55.422Z,51.15
2022-12-23T20:37:59.283Z,51.32
2022-12-23T20:43:03.994Z,51.20
2022-12-23T20:48:07.519Z,51.39
2022-12-23T20:53:11.450Z,50.57
2022-12-23T20:58:32.698Z,51.15
2022-12-23T21:03:36.292Z,50.58
2022-12-23T21:08:40.326Z,50.29
2022-12-23T21:13:43.930Z,51.51
2022-12-23T21:18:48.801Z,51.35
2022-12-23T21:23:52.378Z,50.69
2022-12-23T21:28:56.124Z,51.49
2022-12-23T21:34:00.345Z,51.16
2022-12-23T21:39:03.932Z,51.52
2022-12-23T21:44:07.479Z,51.80
2022-12-23T21:49:11.299Z,51.65
2022-12-23T21:54:15.009Z,51.70
2022-12-23T21:59:18.522Z,51.46
2022-12-23T22:04:22.094Z,50.98
2022-12-23T22:09:25.653Z,50.92
2022-12-23T22:14:29.174Z,50.96
2022-12-23T22:19:32.939Z,51.11
2022-12-23T22:24:36.496Z,50.87
2022-12-23T22:29:41.441Z,50.68
2022-12-23T22:34:45.626Z,50.68
2022-12-23T22:39:49.679Z,50.97
2022-12-23T22:44:53.356Z,51.11
2022-12-23T22:49:56.959Z,51.14
2022-12-23T22:55:00.531Z,51.03
2022-12-23T23:00:11.654Z,50.43
2022-12-23T23:05:16.051Z,50.37
2022-12-23T23:10:21.614Z,50.08
2022-12-23T23:15:25.241Z,50.78
2022-12-23T23:20:28.805Z,52.52
2022-12-23T23:25:32.440Z,51.64
2022-12-23T23:30:36.020Z,51.35
2022-12-23T23:35:39.686Z,51.26
2022-12-23T23:40:43.231Z,51.32
2022-12-23T23:45:46.801Z,50.47
2022-12-23T23:50:50.425Z,51.18
2022-12-23T23:55:53.959Z,51.57
